createdAt,value
2023-04-11T00:05:58.603Z,83.52
2023-04-11T00:16:02.113Z,83.38
2023-04-11T00:26:06.983Z,83.17
2023-04-11T00:36:11.242Z,82.57
2023-04-11T00:46:17.278Z,82.15
2023-04-11T00:56:21.035Z,82.18
2023-04-11T01:06:26.581Z,80.84
2023-04-11T01:16:30.519Z,80.06
2023-04-11T01:26:35.642Z,81.27
2023-04-11T01:36:40.036Z,79.90
2023-04-11T01:46:45.229Z,80.06
2023-04-11T01:56:48.529Z,80.20
2023-04-11T02:06:53.144Z,79.88
2023-04-11T02:16:57.858Z,81.64
2023-04-11T02:27:04.117Z,81.27
2023-04-11T02:37:07.178Z,81.34
2023-04-11T02:47:11.766Z,80.85
2023-04-11T02:57:15.369Z,79.20
2023-04-11T03:07:20.071Z,79.43
2023-04-11T03:17:23.482Z,79.16
2023-04-11T03:27:28.351Z,78.71
2023-04-11T03:37:36.614Z,78.30
2023-04-11T03:47:41.351Z,78.26
2023-04-11T03:57:45.580Z,77.85
2023-04-11T04:07:50.819Z,77.71
2023-04-11T04:18:23.263Z,77.04
2023-04-11T04:28:28.845Z,76.55
2023-04-11T04:38:38.741Z,76.76
2023-04-11T04:48:46.755Z,76.79
2023-04-11T04:58:50.031Z,76.54
2023-04-11T05:08:57.469Z,77.13
2023-04-11T05:19:01.055Z,77.10
2023-04-11T05:29:06.711Z,77.17
2023-04-11T05:39:10.260Z,75.95
2023-04-11T05:49:15.681Z,75.17
2023-04-11T05:59:24.721Z,75.45
2023-04-11T06:09:33.374Z,75.76
2023-04-11T06:19:36.966Z,77.05
2023-04-11T06:29:44.117Z,76.57
2023-04-11T06:39:47.248Z,77.67
2023-04-11T06:49:51.919Z,77.59
2023-04-11T06:59:55.204Z,77.63
2023-04-11T07:09:59.805Z,77.16
2023-04-11T07:20:04.354Z,75.20
2023-04-11T07:30:10.215Z,73.64
2023-04-11T07:40:14.481Z,73.12
2023-04-11T07:50:18.999Z,69.02
2023-04-11T08:00:24.124Z,66.08
2023-04-11T08:10:28.608Z,63.99
2023-04-11T08:20:32.027Z,63.74
2023-04-11T08:30:36.519Z,59.82
2023-04-11T08:40:39.920Z,60.48
2023-04-11T08:50:45.464Z,58.90
2023-04-11T09:00:48.604Z,55.80
2023-04-11T09:10:53.121Z,53.76
2023-04-11T09:21:01.016Z,52.30
2023-04-11T09:31:05.801Z,49.94
2023-04-11T09:41:08.877Z,48.78
2023-04-11T09:51:18.089Z,46.07
2023-04-11T10:01:31.519Z,45.85
2023-04-11T10:11:36.726Z,45.80
2023-04-11T10:21:41.997Z,46.86
2023-04-11T10:32:09.399Z,43.32
2023-04-11T10:42:27.583Z,42.71
2023-04-11T10:52:38.937Z,41.48
2023-04-11T11:02:42.480Z,41.63
2023-04-11T11:12:56.699Z,41.90
2023-04-11T11:23:01.229Z,40.79
2023-04-11T11:33:27.666Z,42.07
2023-04-11T11:43:30.751Z,38.15
2023-04-11T11:53:35.128Z,40.17
2023-04-11T12:03:38.646Z,37.63
2023-04-11T12:13:45.597Z,36.55
2023-04-11T12:23:48.668Z,37.05
2023-04-11T12:33:53.537Z,34.26
2023-04-11T12:43:56.832Z,35.50
2023-04-11T12:54:20.001Z,36.74
2023-04-11T13:04:23.860Z,36.49
2023-04-11T13:14:28.876Z,36.16
2023-04-11T13:24:33.131Z,34.87
2023-04-11T13:34:38.124Z,35.67
2023-04-11T13:44:41.426Z,35.62
2023-04-11T13:54:46.087Z,36.62
2023-04-11T14:04:49.689Z,37.84
2023-04-11T14:14:54.059Z,39.51
2023-04-11T14:24:56.919Z,39.91
2023-04-11T14:35:02.514Z,40.11
2023-04-11T14:45:08.615Z,41.20
2023-04-11T14:55:13.346Z,40.56
2023-04-11T15:05:18.135Z,41.94
2023-04-11T15:15:23.870Z,42.10
2023-04-11T15:25:26.848Z,42.88
2023-04-11T15:35:31.153Z,40.44
2023-04-11T15:45:35.713Z,40.58
2023-04-11T15:55:41.268Z,42.04
2023-04-11T16:05:45.152Z,42.08
2023-04-11T16:15:49.799Z,42.75
2023-04-11T16:25:52.672Z,43.02
2023-04-11T16:35:57.137Z,48.03
2023-04-11T16:46:00.288Z,44.58
2023-04-11T16:56:04.860Z,45.40
2023-04-11T17:06:14.669Z,45.88
2023-04-11T17:16:19.466Z,46.80
2023-04-11T17:26:22.633Z,46.84
2023-04-11T17:36:28.559Z,49.21
2023-04-11T17:46:32.053Z,49.68
2023-04-11T17:56:36.459Z,50.39
2023-04-11T18:06:40.459Z,50.78
2023-04-11T18:16:47.302Z,50.00
2023-04-11T18:26:51.644Z,49.37
2023-04-11T18:36:56.118Z,48.27
2023-04-11T18:47:01.215Z,48.60
2023-04-11T18:57:08.000Z,48.70
2023-04-11T19:07:12.653Z,47.13
2023-04-11T19:17:16.872Z,46.25
2023-04-11T19:27:21.714Z,45.15
2023-04-11T19:37:26.458Z,45.65
2023-04-11T19:47:30.036Z,44.93
2023-04-11T19:57:35.016Z,45.57
2023-04-11T20:07:39.014Z,45.05
2023-04-11T20:17:45.923Z,45.26
2023-04-11T20:27:49.505Z,46.02
2023-04-11T20:37:54.255Z,46.55
2023-04-11T20:47:59.756Z,46.76
2023-04-11T20:58:08.499Z,47.07
2023-04-11T21:08:12.102Z,47.39
2023-04-11T21:18:16.600Z,48.61
2023-04-11T21:28:19.411Z,50.85
2023-04-11T21:38:23.722Z,51.16
2023-04-11T21:48:27.209Z,52.40
2023-04-11T21:58:31.661Z,52.89
2023-04-11T22:08:38.876Z,53.39
2023-04-11T22:18:49.939Z,54.39
2023-04-11T22:28:53.068Z,55.42
2023-04-11T22:38:57.458Z,56.76
2023-04-11T22:49:00.825Z,57.06
2023-04-11T22:59:05.281Z,56.21
2023-04-11T23:09:09.390Z,55.16
2023-04-11T23:19:13.828Z,54.83
2023-04-11T23:29:17.196Z,55.47
2023-04-11T23:39:22.924Z,55.55
2023-04-11T23:49:26.782Z,56.85
2023-04-11T23:59:31.938Z,58.14
